createdAt,value
2022-11-06T00:01:00.536Z,101199.00
2022-11-06T00:06:42.805Z,101182.59
2022-11-06T00:12:06.340Z,101192.75
2022-11-06T00:17:29.401Z,101185.75
2022-11-06T00:22:53.853Z,101184.06
2022-11-06T00:28:16.915Z,101187.72
2022-11-06T00:33:40.039Z,101204.25
2022-11-06T00:39:04.879Z,101184.28
2022-11-06T00:44:27.943Z,101177.38
2022-11-06T00:49:51.101Z,101183.56
2022-11-06T00:55:15.646Z,101190.53
2022-11-06T01:00:38.886Z,101186.94
2022-11-06T01:06:08.849Z,101170.41
2022-11-06T01:11:59.210Z,101180.06
2022-11-06T01:17:18.223Z,101167.00
2022-11-06T01:22:41.331Z,101163.56
2022-11-06T01:28:06.097Z,101162.81
2022-11-06T01:33:29.929Z,101137.03
2022-11-06T01:38:55.170Z,101176.78
2022-11-06T01:44:55.676Z,101175.97
2022-11-06T01:50:20.683Z,101172.47
2022-11-06T01:55:46.640Z,101162.84
2022-11-06T02:01:09.867Z,101163.72
2022-11-06T02:06:34.631Z,101154.13
2022-11-06T02:12:01.066Z,101158.38
2022-11-06T02:17:35.465Z,101166.19
2022-11-06T02:23:25.675Z,101145.22
2022-11-06T02:28:52.428Z,101158.22
2022-11-06T02:34:16.730Z,101145.97
2022-11-06T02:39:42.189Z,101144.31
2022-11-06T02:45:12.440Z,101139.09
2022-11-06T02:50:44.226Z,101138.13
2022-11-06T02:56:11.306Z,101137.34
2022-11-06T03:01:39.210Z,101132.13
2022-11-06T03:07:07.396Z,101131.09
2022-11-06T03:12:32.616Z,101120.50
2022-11-06T03:18:01.712Z,101121.41
2022-11-06T03:23:28.728Z,101122.38
2022-11-06T03:28:54.122Z,101117.03
2022-11-06T03:34:22.699Z,101110.97
2022-11-06T03:39:49.833Z,101100.69
2022-11-06T03:45:16.034Z,101105.69
2022-11-06T03:50:47.772Z,101085.69
2022-11-06T03:56:14.837Z,101082.84
2022-11-06T04:01:45.105Z,101065.41
2022-11-06T04:07:13.594Z,101075.97
2022-11-06T04:12:54.098Z,101083.13
2022-11-06T04:18:19.727Z,101070.81
2022-11-06T04:24:11.432Z,101085.03
2022-11-06T04:29:44.628Z,101075.47
2022-11-06T04:35:14.195Z,101067.66
2022-11-06T04:40:46.501Z,101057.94
2022-11-06T04:46:12.389Z,101059.66
2022-11-06T04:51:37.445Z,101049.06
2022-11-06T04:57:02.759Z,101053.59
2022-11-06T05:02:25.914Z,101047.56
2022-11-06T05:07:49.168Z,101054.56
2022-11-06T05:13:14.159Z,101046.66
2022-11-06T05:18:37.432Z,101045.63
2022-11-06T05:24:00.518Z,101032.66
2022-11-06T05:29:25.037Z,101020.50
2022-11-06T05:34:48.133Z,101038.75
2022-11-06T05:40:17.216Z,101013.44
2022-11-06T05:45:41.832Z,101011.69
2022-11-06T05:51:06.950Z,101002.19
2022-11-06T05:56:31.339Z,100993.50
2022-11-06T06:01:55.975Z,101000.44
2022-11-06T06:07:23.919Z,100981.28
2022-11-06T06:12:47.006Z,100981.97
2022-11-06T06:18:12.475Z,100980.34
2022-11-06T06:23:36.176Z,100970.69
2022-11-06T06:28:59.598Z,100982.97
2022-11-06T06:34:26.410Z,100968.81
2022-11-06T06:39:49.552Z,100969.69
2022-11-06T06:45:12.784Z,100951.78
2022-11-06T06:50:37.436Z,100951.94
2022-11-06T06:56:03.277Z,100960.75
2022-11-06T07:01:26.451Z,100950.69
2022-11-06T07:06:51.302Z,100942.03
2022-11-06T07:12:14.464Z,100954.09
2022-11-06T07:17:37.634Z,100954.94
2022-11-06T07:23:07.257Z,100955.72
2022-11-06T07:28:30.401Z,100951.41
2022-11-06T07:33:53.865Z,100953.41
2022-11-06T07:39:22.935Z,100952.47
2022-11-06T07:44:58.471Z,100957.72
2022-11-06T07:50:23.941Z,100946.34
2022-11-06T07:55:50.814Z,100954.25
2022-11-06T08:01:19.303Z,100941.31
2022-11-06T08:06:44.613Z,100937.88
2022-11-06T08:12:09.305Z,100932.81
2022-11-06T08:17:32.605Z,100932.66
2022-11-06T08:23:03.301Z,100952.72
2022-11-06T08:28:28.541Z,100947.00
2022-11-06T08:33:53.665Z,100932.34
2022-11-06T08:39:17.360Z,100924.28
2022-11-06T08:44:42.459Z,100919.03
2022-11-06T08:50:08.183Z,100914.00
2022-11-06T08:55:35.685Z,100907.88
2022-11-06T09:01:00.315Z,100920.09
2022-11-06T09:06:27.419Z,100913.97
2022-11-06T09:11:50.550Z,100901.78
2022-11-06T09:17:16.698Z,100902.50
2022-11-06T09:22:41.259Z,100895.16
2022-11-06T09:28:06.108Z,100862.88
2022-11-06T09:33:31.559Z,100867.97
2022-11-06T09:38:54.651Z,100864.31
2022-11-06T09:44:30.792Z,100857.94
2022-11-06T09:49:56.057Z,100869.06
2022-11-06T09:55:22.813Z,100868.56
2022-11-06T10:00:46.087Z,100863.06
2022-11-06T10:06:10.586Z,100859.03
2022-11-06T10:11:51.667Z,100842.19
2022-11-06T10:17:22.590Z,100835.25
2022-11-06T10:22:55.313Z,100817.75
2022-11-06T10:28:32.376Z,100818.88
2022-11-06T10:33:59.384Z,100805.50
2022-11-06T10:39:28.456Z,100804.84
2022-11-06T10:44:56.635Z,100791.78
2022-11-06T10:50:23.837Z,100780.59
2022-11-06T10:56:10.753Z,100763.66
2022-11-06T11:01:34.895Z,100744.00
2022-11-06T11:06:58.087Z,100729.69
2022-11-06T11:12:24.901Z,100733.69
2022-11-06T11:18:08.349Z,100721.06
2022-11-06T11:23:31.955Z,100715.44
2022-11-06T11:28:57.965Z,100699.66
2022-11-06T11:34:22.672Z,100690.09
2022-11-06T11:39:46.014Z,100680.28
2022-11-06T11:45:19.859Z,100675.69
2022-11-06T11:50:43.069Z,100678.97
2022-11-06T11:56:07.874Z,100679.78
2022-11-06T12:01:40.833Z,100665.28
2022-11-06T12:07:05.490Z,100661.94
2022-11-06T12:12:32.532Z,100661.06
2022-11-06T12:18:04.281Z,100659.34
2022-11-06T12:23:34.475Z,100645.00
2022-11-06T12:29:05.129Z,100631.94
2022-11-06T12:34:34.867Z,100637.81
2022-11-06T12:40:10.116Z,100628.31
2022-11-06T12:51:49.996Z,100596.31
2022-11-06T12:57:22.753Z,100591.84
2022-11-06T13:03:01.611Z,100595.41
2022-11-06T13:08:36.054Z,100598.16
2022-11-06T13:14:12.873Z,100589.78
2022-11-06T13:19:44.925Z,100589.16
2022-11-06T13:25:22.360Z,100586.13
2022-11-06T13:30:52.976Z,100585.69
2022-11-06T13:36:17.882Z,100567.00
2022-11-06T13:42:06.919Z,100563.66
2022-11-06T13:47:41.665Z,100561.00
2022-11-06T13:53:13.711Z,100556.94
2022-11-06T13:58:57.233Z,100542.16
2022-11-06T14:04:38.097Z,100536.91
2022-11-06T14:16:25.316Z,100532.13
2022-11-06T14:21:51.061Z,100522.38
2022-11-06T14:28:15.708Z,100516.97
2022-11-06T14:34:03.772Z,100518.97
2022-11-06T14:40:06.583Z,100511.41
2022-11-06T14:45:32.941Z,100499.13
2022-11-06T14:51:00.422Z,100492.16
2022-11-06T14:56:31.849Z,100492.44
2022-11-06T15:02:03.809Z,100478.38
2022-11-06T15:13:30.706Z,100468.94
2022-11-06T15:18:57.171Z,100456.50
2022-11-06T15:24:28.564Z,100437.56
2022-11-06T15:29:57.323Z,100443.09
2022-11-06T15:35:23.100Z,100416.31
2022-11-06T15:40:49.066Z,100398.06
2022-11-06T15:46:22.673Z,100406.97
2022-11-06T15:51:52.819Z,100400.06
2022-11-06T15:57:22.492Z,100396.84
2022-11-06T16:02:49.771Z,100399.47
2022-11-06T16:08:14.695Z,100392.03
2022-11-06T16:13:39.506Z,100388.09
2022-11-06T16:19:04.272Z,100370.91
2022-11-06T16:24:31.530Z,100371.56
2022-11-06T16:29:57.762Z,100363.97
2022-11-06T16:35:37.017Z,100359.09
2022-11-06T16:41:01.621Z,100357.59
2022-11-06T16:46:28.345Z,100350.97
2022-11-06T16:51:51.595Z,100339.81
2022-11-06T16:57:17.589Z,100338.94
2022-11-06T17:02:51.691Z,100337.78
2022-11-06T17:08:38.770Z,100340.56
2022-11-06T17:14:06.399Z,100333.72
2022-11-06T17:20:13.271Z,100332.66
2022-11-06T17:25:38.013Z,100331.84
2022-11-06T17:31:03.241Z,100321.44
2022-11-06T17:36:27.976Z,100323.16
2022-11-06T17:41:53.583Z,100316.84
2022-11-06T17:47:16.877Z,100328.31
2022-11-06T17:52:40.108Z,100319.66
2022-11-06T17:58:04.800Z,100333.47
2022-11-06T18:03:35.321Z,100319.34
2022-11-06T18:09:02.882Z,100321.31
2022-11-06T18:14:29.683Z,100309.78
2022-11-06T18:19:53.256Z,100305.63
2022-11-06T18:25:16.441Z,100301.25
2022-11-06T18:30:41.138Z,100306.13
2022-11-06T18:36:07.259Z,100311.50
2022-11-06T18:41:32.333Z,100312.84
2022-11-06T18:46:58.555Z,100306.88
2022-11-06T18:52:44.497Z,100306.75
2022-11-06T18:58:07.464Z,100290.06
2022-11-06T19:03:32.166Z,100263.03
2022-11-06T19:08:55.408Z,100274.94
2022-11-06T19:14:18.884Z,100275.63
2022-11-06T19:19:43.802Z,100288.44
2022-11-06T19:25:07.917Z,100281.50
2022-11-06T19:30:31.739Z,100274.31
2022-11-06T19:36:00.756Z,100280.16
2022-11-06T19:41:23.934Z,100282.72
2022-11-06T19:46:47.128Z,100279.22
2022-11-06T19:52:41.365Z,100286.91
2022-11-06T19:57:55.104Z,100283.28
2022-11-06T20:03:18.635Z,100282.31
2022-11-06T20:08:48.557Z,100280.47
2022-11-06T20:14:11.853Z,100284.78
2022-11-06T20:19:35.314Z,100264.72
2022-11-06T20:24:59.881Z,100271.31
2022-11-06T20:30:25.050Z,100265.91
2022-11-06T20:35:48.310Z,100274.53
2022-11-06T20:41:14.532Z,100291.97
2022-11-06T20:46:37.718Z,100287.97
2022-11-06T20:52:13.809Z,100284.31
2022-11-06T20:57:39.179Z,100292.91
2022-11-06T21:03:02.444Z,100290.38
2022-11-06T21:08:26.022Z,100292.78
2022-11-06T21:13:57.499Z,100300.69
2022-11-06T21:19:21.961Z,100322.28
2022-11-06T21:24:48.157Z,100315.06
2022-11-06T21:30:13.301Z,100319.09
2022-11-06T21:35:36.580Z,100326.53
2022-11-06T21:40:59.963Z,100327.84
2022-11-06T21:46:24.672Z,100329.56
2022-11-06T21:51:47.861Z,100336.59
2022-11-06T21:57:11.001Z,100338.41
2022-11-06T22:02:35.974Z,100341.13
2022-11-06T22:07:59.438Z,100348.84
2022-11-06T22:13:22.916Z,100341.81
2022-11-06T22:18:47.523Z,100341.03
2022-11-06T22:24:12.133Z,100355.94
2022-11-06T22:29:35.274Z,100350.84
2022-11-06T22:34:59.894Z,100352.47
2022-11-06T22:40:23.147Z,100361.19
2022-11-06T22:45:46.459Z,100348.84
2022-11-06T22:51:13.061Z,100353.09
2022-11-06T22:56:36.310Z,100364.31
2022-11-06T23:01:59.755Z,100378.19
2022-11-06T23:07:24.496Z,100378.09
2022-11-06T23:12:47.714Z,100377.88
2022-11-06T23:18:10.926Z,100382.22
2022-11-06T23:23:35.587Z,100378.91
2022-11-06T23:29:00.955Z,100400.44
2022-11-06T23:34:24.164Z,100394.16
2022-11-06T23:39:48.873Z,100402.88
2022-11-06T23:45:30.062Z,100395.63
2022-11-06T23:50:53.460Z,100406.78
2022-11-06T23:56:19.763Z,100396.50
